Time;durP1;ratioP1;P1;durP2;ratioP2;P2;SDS_P1;SDS_P2;PMS_P1;PMS_P2;Temp;Humidity;BMP_temperature;BMP_pressure;BME280_temperature;BME280_humidity;BME280_pressure;Samples;Min_cycle;Max_cycle;Signal;HPM_P1;HPM_P2
2021/10/03 00:00:18;;;;;;;5.05;4.65;;;;;;;17.39;68.70;99291.50;4971698;28;20488;-74
2021/10/03 00:02:50;;;;;;;4.63;4.20;;;;;;;17.39;68.57;99297.00;4975083;28;20400;-74
2021/10/03 00:05:17;;;;;;;5.07;4.68;;;;;;;17.37;68.73;99288.31;4971965;28;20396;-74
2021/10/03 00:07:47;;;;;;;6.20;4.90;;;;;;;17.37;68.95;99284.75;4965721;28;20410;-74
2021/10/03 00:10:13;;;;;;;5.13;4.60;;;;;;;17.36;69.23;99294.88;4967635;28;20505;-74
2021/10/03 00:12:39;;;;;;;4.72;4.43;;;;;;;17.36;69.40;99294.88;4974942;28;20404;-74
2021/10/03 00:15:07;;;;;;;6.83;5.00;;;;;;;17.34;69.71;99296.34;4972169;28;20396;-74
2021/10/03 00:17:33;;;;;;;5.33;4.40;;;;;;;17.31;69.48;99286.84;4974346;28;20763;-74
2021/10/03 00:19:59;;;;;;;5.23;4.73;;;;;;;17.33;69.56;99278.28;4970580;28;20412;-74
2021/10/03 00:22:25;;;;;;;4.68;4.28;;;;;;;17.32;69.81;99295.88;4967892;28;20411;-74
2021/10/03 00:24:50;;;;;;;6.60;5.17;;;;;;;17.31;69.56;99289.56;4974615;28;20884;-74
2021/10/03 00:27:15;;;;;;;6.53;5.00;;;;;;;17.31;69.67;99292.31;4967142;28;20404;-74
2021/10/03 00:29:41;;;;;;;6.60;5.27;;;;;;;17.31;69.92;99289.56;4964856;28;20407;-74
2021/10/03 00:32:06;;;;;;;5.20;4.80;;;;;;;17.30;70.25;99287.13;4965344;28;20440;-74
2021/10/03 00:34:32;;;;;;;4.97;4.47;;;;;;;17.28;70.48;99289.41;4967861;28;20438;-74
2021/10/03 00:36:58;;;;;;;5.43;4.93;;;;;;;17.27;70.61;99282.31;4974259;28;20410;-74
2021/10/03 00:39:23;;;;;;;4.77;4.27;;;;;;;17.25;70.78;99277.16;4969007;28;20523;-74
2021/10/03 00:41:48;;;;;;;12.23;4.53;;;;;;;17.24;71.09;99277.47;4971326;28;20416;-74
2021/10/03 00:44:14;;;;;;;6.30;5.10;;;;;;;17.24;70.94;99281.00;4963882;28;20411;-74
2021/10/03 00:46:40;;;;;;;7.40;4.83;;;;;;;17.23;71.08;99275.84;4961930;28;20501;-74
2021/10/03 00:49:06;;;;;;;4.82;4.40;;;;;;;17.22;70.96;99276.97;4970167;28;20456;-74
2021/10/03 00:51:31;;;;;;;6.17;5.03;;;;;;;17.22;71.06;99274.25;4971763;28;20794;-74
2021/10/03 00:53:57;;;;;;;4.67;4.27;;;;;;;17.21;71.12;99276.16;4969714;28;20412;-74
2021/10/03 00:56:22;;;;;;;6.80;6.10;;;;;;;17.21;71.43;99258.94;4973198;28;20458;-74
2021/10/03 00:58:47;;;;;;;7.40;5.22;;;;;;;17.21;71.18;99258.94;4973976;28;20779;-74
2021/10/03 01:01:13;;;;;;;5.20;4.73;;;;;;;17.20;71.25;99260.84;4972312;28;20447;-74
2021/10/03 01:03:39;;;;;;;5.78;5.22;;;;;;;17.20;71.29;99244.44;4966002;28;20404;-74
2021/10/03 01:06:06;;;;;;;5.97;5.20;;;;;;;17.19;71.53;99251.03;4973713;28;20419;-74
2021/10/03 01:08:31;;;;;;;5.65;5.03;;;;;;;17.20;71.49;99249.09;4966353;28;20891;-74
2021/10/03 01:10:57;;;;;;;6.67;5.90;;;;;;;17.19;71.11;99250.25;4968108;28;20468;-74
2021/10/03 01:13:23;;;;;;;5.57;5.07;;;;;;;17.20;71.26;99244.44;4972873;28;20499;-74
2021/10/03 01:15:52;;;;;;;6.50;4.87;;;;;;;17.22;70.83;99244.13;4970896;28;20407;-74
2021/10/03 01:18:18;;;;;;;5.70;5.20;;;;;;;17.23;71.04;99237.50;4970762;28;20431;-74
2021/10/03 01:20:43;;;;;;;5.63;5.07;;;;;;;17.23;70.94;99243.78;4973079;28;20410;-74
2021/10/03 01:23:09;;;;;;;6.23;5.13;;;;;;;17.20;70.73;99225.25;4968020;28;20488;-74
2021/10/03 01:25:41;;;;;;;5.28;4.80;;;;;;;17.21;70.94;99228.81;4970083;28;20779;-75
2021/10/03 01:28:07;;;;;;;4.90;4.50;;;;;;;17.21;71.45;99226.06;4967061;28;20412;-74
2021/10/03 01:30:34;;;;;;;7.80;5.87;;;;;;;17.21;71.25;99224.16;4970030;28;20582;-74
2021/10/03 01:33:01;;;;;;;6.25;5.70;;;;;;;17.21;71.24;99223.34;4967868;28;20400;-74
2021/10/03 01:35:26;;;;;;;6.13;5.60;;;;;;;17.20;71.38;99217.06;4962356;28;20446;-74
2021/10/03 01:37:52;;;;;;;6.73;5.80;;;;;;;17.20;71.43;99224.47;4961152;28;20859;-74
2021/10/03 01:40:19;;;;;;;6.80;6.20;;;;;;;17.18;71.54;99216.56;4963223;28;20500;-74
2021/10/03 01:42:45;;;;;;;8.70;7.07;;;;;;;17.19;71.31;99207.22;4966155;28;20414;-74
2021/10/03 01:45:14;;;;;;;6.88;6.28;;;;;;;17.18;71.39;99216.56;4970445;28;20404;-74
2021/10/03 01:48:05;;;;;;;6.85;6.22;;;;;;;17.16;71.50;99213.34;4973166;28;20432;-74
2021/10/03 01:50:31;;;;;;;7.32;6.57;;;;;;;17.15;71.41;99222.69;4971944;28;20412;-74
2021/10/03 01:52:56;;;;;;;6.70;6.00;;;;;;;17.15;71.63;99217.22;4968847;28;20809;-74
2021/10/03 01:55:21;;;;;;;6.85;5.63;;;;;;;17.14;71.72;99207.38;4970086;28;20444;-74
2021/10/03 01:57:47;;;;;;;6.13;5.60;;;;;;;17.13;71.95;99208.50;4972039;28;20420;-74
2021/10/03 02:00:12;;;;;;;6.07;4.90;;;;;;;17.11;72.11;99200.63;4971334;28;20405;-74
2021/10/03 02:02:38;;;;;;;5.90;5.20;;;;;;;17.11;72.28;99199.81;4969031;28;20444;-74
2021/10/03 02:05:03;;;;;;;5.33;4.80;;;;;;;17.10;72.37;99192.72;4970830;28;20422;-74
2021/10/03 02:07:29;;;;;;;5.67;5.10;;;;;;;17.08;72.46;99192.22;4964750;28;20412;-74
2021/10/03 02:09:55;;;;;;;5.00;4.60;;;;;;;17.07;72.49;99196.91;4968889;28;20402;-74
2021/10/03 02:12:21;;;;;;;5.20;4.72;;;;;;;17.06;72.76;99189.81;4965792;28;20950;-74
2021/10/03 02:14:46;;;;;;;5.20;4.70;;;;;;;17.03;72.86;99187.69;4967960;28;20416;-74
2021/10/03 02:17:11;;;;;;;6.60;5.40;;;;;;;17.03;72.96;99178.69;4969114;28;20888;-75
2021/10/03 02:19:39;;;;;;;5.43;5.03;;;;;;;16.98;73.27;99176.91;4971584;28;20805;-74
2021/10/03 02:22:05;;;;;;;5.30;4.85;;;;;;;16.97;73.35;99172.56;4968424;28;20745;-74
2021/10/03 02:24:30;;;;;;;8.15;6.22;;;;;;;16.96;73.52;99170.94;4964939;28;20417;-74
2021/10/03 02:26:55;;;;;;;6.27;5.70;;;;;;;16.97;73.35;99169.81;4969558;28;20419;-74
2021/10/03 02:29:21;;;;;;;7.60;5.43;;;;;;;16.99;73.51;99162.09;4965071;28;20523;-74
2021/10/03 02:31:46;;;;;;;5.40;4.93;;;;;;;16.98;73.42;99168.69;4995789;28;20455;-75
2021/10/03 02:34:12;;;;;;;5.80;5.23;;;;;;;16.98;73.38;99163.22;4966797;28;20416;-74
2021/10/03 02:36:37;;;;;;;5.07;4.57;;;;;;;16.97;73.48;99155.31;4966164;28;20414;-74
2021/10/03 02:39:03;;;;;;;5.40;5.00;;;;;;;16.97;73.54;99152.59;4961642;28;20485;-74
2021/10/03 02:41:29;;;;;;;5.70;5.07;;;;;;;16.96;73.45;99157.25;4972013;28;20408;-74
2021/10/03 02:43:57;;;;;;;6.20;4.97;;;;;;;16.96;73.55;99160.00;4971861;28;20470;-74
2021/10/03 02:46:24;;;;;;;6.13;5.28;;;;;;;16.95;73.48;99150.19;4971450;28;20418;-74
2021/10/03 02:48:51;;;;;;;6.07;5.47;;;;;;;16.97;73.50;99155.31;4969555;28;20413;-74
2021/10/03 02:51:19;;;;;;;5.97;5.38;;;;;;;16.98;73.44;99159.69;4969515;28;20435;-74
2021/10/03 02:53:47;;;;;;;5.75;5.25;;;;;;;16.98;73.19;99152.28;4971956;28;20880;-74
2021/10/03 02:56:16;;;;;;;8.32;4.90;;;;;;;16.99;73.17;99151.13;4970771;28;20946;-74
2021/10/03 02:58:42;;;;;;;5.70;5.10;;;;;;;16.99;73.25;99151.13;4971264;28;20434;-74
2021/10/03 03:01:07;;;;;;;5.63;5.03;;;;;;;16.97;73.35;99150.66;4968036;28;20478;-74
2021/10/03 03:03:35;;;;;;;6.07;5.43;;;;;;;16.98;73.27;99154.22;4967547;28;20404;-74
2021/10/03 03:06:01;;;;;;;6.10;5.50;;;;;;;16.96;73.35;99146.31;4968244;28;20424;-74
2021/10/03 03:08:26;;;;;;;5.80;5.20;;;;;;;16.95;73.41;99144.72;4966980;28;20503;-74
2021/10/03 03:10:51;;;;;;;5.67;5.10;;;;;;;16.94;73.51;99151.31;4969902;28;20409;-74
2021/10/03 03:13:16;;;;;;;6.75;5.75;;;;;;;16.95;73.53;99152.13;4963518;28;20416;-74
2021/10/03 03:15:42;;;;;;;6.70;5.30;;;;;;;16.95;73.63;99141.97;4961122;28;20410;-74
2021/10/03 03:18:07;;;;;;;5.77;5.17;;;;;;;16.94;73.67;99145.00;4970936;28;20419;-74
2021/10/03 03:20:33;;;;;;;5.53;5.13;;;;;;;16.93;73.96;99149.69;4970490;28;20412;-74
2021/10/03 03:22:58;;;;;;;5.73;5.13;;;;;;;16.93;73.93;99133.25;4998221;28;20412;-74
2021/10/03 03:25:23;;;;;;;6.30;4.80;;;;;;;16.93;73.91;99141.47;4971162;28;20463;-74
2021/10/03 03:27:49;;;;;;;6.07;5.47;;;;;;;16.93;74.22;99137.91;4960794;28;20464;-74
2021/10/03 03:30:14;;;;;;;6.07;5.20;;;;;;;16.94;74.32;99134.06;4969348;28;20396;-74
2021/10/03 03:32:40;;;;;;;5.63;5.13;;;;;;;16.94;74.30;99129.41;4971013;28;20435;-74
2021/10/03 03:35:07;;;;;;;5.55;5.15;;;;;;;16.93;74.23;99127.78;4969814;28;20455;-74
2021/10/03 03:37:33;;;;;;;6.70;6.03;;;;;;;16.92;74.29;99123.47;4970757;28;20426;-74
2021/10/03 03:39:58;;;;;;;6.03;5.30;;;;;;;16.93;74.23;99124.25;4969594;28;20917;-74
2021/10/03 03:42:23;;;;;;;9.17;5.10;;;;;;;16.93;74.21;99116.84;4971025;28;20466;-74
2021/10/03 03:44:48;;;;;;;5.73;5.23;;;;;;;16.93;74.24;99124.25;4993486;28;20883;-74
2021/10/03 03:47:14;;;;;;;6.03;5.43;;;;;;;16.93;74.49;99121.50;4971469;28;20860;-74
2021/10/03 03:49:39;;;;;;;5.80;5.20;;;;;;;16.93;74.23;99121.50;4970608;28;20439;-74
2021/10/03 03:52:06;;;;;;;7.10;5.43;;;;;;;16.93;74.06;99116.03;4964752;28;20412;-74
2021/10/03 03:54:31;;;;;;;6.43;5.75;;;;;;;16.92;73.96;99117.97;4970870;28;20416;-74
2021/10/03 03:56:56;;;;;;;5.97;5.47;;;;;;;16.93;74.02;99116.03;4966609;28;20410;-74
2021/10/03 03:59:25;;;;;;;6.17;5.63;;;;;;;16.94;73.99;99123.94;4971219;28;20420;-74
2021/10/03 04:01:51;;;;;;;5.47;5.07;;;;;;;16.93;74.14;99114.09;4969596;28;20490;-74
2021/10/03 04:04:16;;;;;;;5.13;4.73;;;;;;;16.94;73.92;99110.25;4964528;28;20576;-74
2021/10/03 04:06:42;;;;;;;6.13;5.43;;;;;;;16.94;73.98;99114.91;4963868;28;20505;-74
2021/10/03 04:09:07;;;;;;;6.93;5.70;;;;;;;16.95;73.76;99109.13;4971213;28;20408;-74
2021/10/03 04:11:32;;;;;;;6.33;5.77;;;;;;;16.96;73.77;99108.00;4970901;28;20400;-74
2021/10/03 04:13:58;;;;;;;7.75;5.60;;;;;;;16.96;74.02;99099.78;4970925;28;20400;-74
2021/10/03 04:16:23;;;;;;;6.63;5.70;;;;;;;16.95;73.80;99102.84;4964874;28;20400;-74
2021/10/03 04:18:48;;;;;;;6.60;5.33;;;;;;;16.95;73.71;99095.44;4971217;28;20756;-74
2021/10/03 04:21:13;;;;;;;7.20;5.87;;;;;;;16.95;74.07;99086.44;4965324;28;20412;-75
2021/10/03 04:23:39;;;;;;;6.20;5.60;;;;;;;16.96;73.88;99090.75;4970313;28;20412;-74
2021/10/03 04:26:04;;;;;;;6.83;4.93;;;;;;;16.96;73.81;99090.75;4970585;28;20435;-74
2021/10/03 04:28:29;;;;;;;5.70;5.10;;;;;;;16.95;73.92;99081.78;4974433;28;20439;-74
2021/10/03 04:30:55;;;;;;;6.20;5.60;;;;;;;16.94;73.96;99084.81;4968747;28;20459;-74
2021/10/03 04:33:20;;;;;;;4.97;4.65;;;;;;;16.93;74.23;99086.75;4985730;28;20400;-74
2021/10/03 04:35:45;;;;;;;6.13;5.53;;;;;;;16.89;74.35;99082.25;4968706;28;20427;-74
2021/10/03 04:38:11;;;;;;;5.30;4.90;;;;;;;16.89;74.34;99082.25;4972797;28;20431;-74
2021/10/03 04:40:36;;;;;;;6.03;5.43;;;;;;;16.88;74.46;99075.97;4972385;28;20482;-74
2021/10/03 04:43:02;;;;;;;7.50;5.10;;;;;;;16.87;74.52;99079.00;4973969;28;20423;-74
2021/10/03 04:45:27;;;;;;;7.00;5.72;;;;;;;16.87;74.48;99068.88;4974027;28;20440;-74
2021/10/03 04:47:53;;;;;;;6.05;5.25;;;;;;;16.88;74.52;99070.50;4971280;28;20502;-74
2021/10/03 04:50:18;;;;;;;7.10;5.33;;;;;;;16.87;74.34;99062.59;4967716;28;20412;-74
2021/10/03 04:52:43;;;;;;;8.33;5.50;;;;;;;16.85;74.41;99067.59;4973574;28;20408;-74
2021/10/03 04:55:10;;;;;;;6.70;5.28;;;;;;;16.85;74.61;99068.41;4973506;28;20404;-74
2021/10/03 04:57:35;;;;;;;5.72;5.30;;;;;;;16.85;74.78;99062.91;4974138;28;20420;-74
2021/10/03 05:00:03;;;;;;;5.97;5.37;;;;;;;16.84;75.02;99071.44;4970682;28;20815;-74
2021/10/03 05:02:28;;;;;;;6.28;5.55;;;;;;;16.85;74.86;99064.84;4974170;28;20411;-74
2021/10/03 05:04:53;;;;;;;6.20;5.60;;;;;;;16.85;74.97;99064.84;4966884;28;20880;-74
2021/10/03 05:07:18;;;;;;;6.35;5.75;;;;;;;16.86;74.83;99066.47;4972108;28;20411;-74
2021/10/03 05:09:44;;;;;;;6.20;5.60;;;;;;;16.87;74.73;99065.31;4973851;28;20408;-74
2021/10/03 05:12:09;;;;;;;5.80;5.27;;;;;;;16.87;74.67;99063.41;4971038;28;20424;-74
2021/10/03 05:14:35;;;;;;;5.47;5.07;;;;;;;16.85;74.73;99064.84;4966065;28;21027;-74
2021/10/03 05:17:00;;;;;;;7.13;5.50;;;;;;;16.85;74.80;99056.63;4967338;28;20446;-74
2021/10/03 05:19:26;;;;;;;5.75;5.25;;;;;;;16.85;74.81;99059.38;4969329;28;20922;-74
2021/10/03 05:21:51;;;;;;;6.80;5.53;;;;;;;16.85;74.88;99059.38;4969847;28;20466;-74
2021/10/03 05:24:16;;;;;;;6.10;5.50;;;;;;;16.87;74.88;99059.84;4965308;28;20404;-74
2021/10/03 05:26:42;;;;;;;7.77;5.87;;;;;;;16.87;74.79;99060.66;4962792;28;20409;-73
2021/10/03 05:29:07;;;;;;;6.90;6.20;;;;;;;16.88;74.72;99067.75;4966043;28;20560;-74
2021/10/03 05:31:33;;;;;;;7.87;6.10;;;;;;;16.88;75.19;99065.00;4969565;28;21055;-74
2021/10/03 05:33:58;;;;;;;5.75;5.25;;;;;;;16.89;75.48;99066.59;4972581;28;20435;-74
2021/10/03 05:36:24;;;;;;;5.57;5.10;;;;;;;16.90;75.75;99070.16;4973071;28;20435;-74
2021/10/03 05:38:50;;;;;;;5.93;5.35;;;;;;;16.90;75.70;99059.19;4972879;28;20443;-74
2021/10/03 05:41:15;;;;;;;5.40;5.00;;;;;;;16.90;75.69;99067.41;4970433;28;20928;-74
2021/10/03 05:43:42;;;;;;;5.63;5.00;;;;;;;16.91;75.36;99069.84;4972390;28;20400;-74
2021/10/03 05:46:08;;;;;;;7.55;5.95;;;;;;;16.93;75.74;99072.25;4963013;28;20476;-74
2021/10/03 05:48:34;;;;;;;9.05;5.65;;;;;;;16.94;75.55;99076.59;4968539;28;20745;-74
2021/10/03 05:51:01;;;;;;;6.05;5.47;;;;;;;16.94;75.47;99077.41;4972238;28;20431;-74
2021/10/03 05:53:27;;;;;;;6.57;5.78;;;;;;;16.95;75.45;99081.78;4961742;28;20735;-74
2021/10/03 05:55:52;;;;;;;5.93;5.35;;;;;;;16.94;75.84;99080.16;4970859;28;20404;-74
2021/10/03 05:58:18;;;;;;;7.82;6.25;;;;;;;16.96;75.72;99085.28;4966523;28;20424;-74
2021/10/03 06:00:43;;;;;;;7.20;6.10;;;;;;;16.97;75.88;99078.69;4968362;28;20415;-74
2021/10/03 06:03:08;;;;;;;5.80;5.32;;;;;;;16.98;75.83;99070.19;4967902;28;20477;-74
2021/10/03 06:05:34;;;;;;;7.63;6.50;;;;;;;17.00;75.88;99072.59;4970321;28;20420;-74
2021/10/03 06:07:59;;;;;;;6.47;5.60;;;;;;;17.01;75.65;99075.00;4965906;28;20426;-74
2021/10/03 06:10:25;;;;;;;6.55;5.95;;;;;;;17.05;75.61;99065.03;4967200;28;20409;-74
2021/10/03 06:12:51;;;;;;;6.87;6.10;;;;;;;17.07;75.56;99061.97;4962711;28;20909;-73
2021/10/03 06:15:17;;;;;;;7.30;6.33;;;;;;;17.08;75.55;99067.13;4966273;28;20917;-74
2021/10/03 06:17:43;;;;;;;7.00;6.30;;;;;;;17.10;75.52;99061.31;4971788;28;20420;-74
2021/10/03 06:20:09;;;;;;;6.47;5.93;;;;;;;17.10;75.55;99081.28;4970509;28;20512;-74
2021/10/03 06:22:35;;;;;;;6.00;5.53;;;;;;;17.11;75.52;99087.56;4964342;28;20400;-74
2021/10/03 06:25:00;;;;;;;6.43;5.83;;;;;;;17.13;75.40;99079.84;4962767;28;20429;-74
2021/10/03 07:31:30;;;;;;;7.87;6.47;;;;;;;17.43;74.98;99124.63;4662265;29;20552;-73
2021/10/03 07:33:55;;;;;;;9.95;6.05;;;;;;;17.43;74.51;99128.16;4894711;29;20423;-73
2021/10/03 07:42:08;;;;;;;8.35;6.22;;;;;;;17.42;74.26;99132.03;2984765;23;22687;-79
2021/10/03 07:44:34;;;;;;;8.35;6.30;;;;;;;17.45;74.51;99125.91;4868221;29;20460;-74
2021/10/03 07:47:00;;;;;;;7.33;6.63;;;;;;;17.44;74.34;99116.09;4868293;29;20478;-74
2021/10/03 07:49:25;;;;;;;6.90;6.27;;;;;;;17.45;74.95;99133.34;4876650;29;20840;-73
2021/10/03 07:51:50;;;;;;;7.93;7.13;;;;;;;17.46;74.76;99133.00;4866933;29;20504;-73
2021/10/03 07:54:16;;;;;;;7.60;6.53;;;;;;;17.48;75.08;99143.66;4856147;29;20468;-73
2021/10/03 07:56:41;;;;;;;8.33;6.97;;;;;;;17.50;74.92;99133.97;4857791;29;20492;-73
2021/10/03 07:59:07;;;;;;;6.80;6.23;;;;;;;17.49;74.78;99137.84;4860617;29;20451;-73
2021/10/03 08:01:32;;;;;;;7.27;6.57;;;;;;;17.49;74.84;99142.50;4860357;29;21111;-74
2021/10/03 08:03:58;;;;;;;9.53;6.80;;;;;;;17.50;74.76;99135.91;4864475;29;20963;-73
2021/10/03 08:06:23;;;;;;;8.45;6.60;;;;;;;17.51;74.80;99141.06;4861919;29;20860;-73
2021/10/03 08:08:49;;;;;;;7.17;6.50;;;;;;;17.53;74.77;99138.00;4866697;29;20524;-73
2021/10/03 08:11:14;;;;;;;7.47;6.15;;;;;;;17.51;75.26;99140.28;4867235;29;20420;-73
2021/10/03 08:13:39;;;;;;;7.17;6.03;;;;;;;17.50;75.21;99120.28;4862533;29;20414;-74
2021/10/03 08:16:08;;;;;;;6.70;5.90;;;;;;;17.51;75.58;99143.00;4862831;29;20420;-73
2021/10/03 08:18:33;;;;;;;7.53;5.80;;;;;;;17.54;75.72;99139.63;4867333;29;21897;-74
2021/10/03 08:20:59;;;;;;;17.02;7.05;;;;;;;17.50;75.42;99133.16;4858134;29;20430;-73
2021/10/03 08:23:25;;;;;;;10.27;6.60;;;;;;;17.53;76.36;99138.81;4866315;29;20512;-74
2021/10/03 08:25:50;;;;;;;13.67;7.07;;;;;;;17.54;75.80;99145.09;4868726;29;20418;-75
2021/10/03 08:28:16;;;;;;;6.50;5.73;;;;;;;17.55;75.24;99131.09;4867361;29;20426;-75
2021/10/03 08:30:42;;;;;;;7.17;6.30;;;;;;;17.56;75.28;99129.97;4862667;29;20842;-75
2021/10/03 08:33:07;;;;;;;6.87;6.27;;;;;;;17.57;76.43;99139.00;4870327;29;20449;-75
2021/10/03 08:35:34;;;;;;;8.00;6.30;;;;;;;17.57;76.38;99149.97;4871680;29;20416;-75
2021/10/03 08:38:00;;;;;;;6.45;5.57;;;;;;;17.57;76.35;99142.56;4868171;29;20435;-75
2021/10/03 08:40:26;;;;;;;8.10;5.85;;;;;;;17.57;76.69;99161.72;4858854;29;20436;-75
2021/10/03 08:42:51;;;;;;;9.48;6.90;;;;;;;17.58;76.48;99159.81;4869197;29;21018;-76
2021/10/03 08:45:16;;;;;;;8.37;7.07;;;;;;;17.59;76.30;99175.91;4886028;29;20433;-75
2021/10/03 08:47:42;;;;;;;17.27;8.23;;;;;;;17.61;76.54;99173.66;4887475;29;20418;-75
2021/10/03 08:50:10;;;;;;;10.33;7.63;;;;;;;17.62;76.09;99178.00;4876366;29;20820;-75
2021/10/03 08:52:39;;;;;;;8.10;7.28;;;;;;;17.63;76.13;99190.56;4875741;29;20516;-75
2021/10/03 08:55:05;;;;;;;9.38;7.85;;;;;;;17.69;76.34;99190.41;4858557;29;20449;-76
2021/10/03 08:57:30;;;;;;;10.80;8.10;;;;;;;17.72;76.20;99187.00;4879062;29;20404;-75
2021/10/03 09:00:19;;;;;;;9.55;8.10;;;;;;;17.77;75.98;99187.69;4877116;29;20417;-76
2021/10/03 09:02:50;;;;;;;8.73;7.25;;;;;;;17.86;75.50;99163.00;4876499;29;20496;-75
2021/10/03 09:05:16;;;;;;;7.68;6.95;;;;;;;17.91;75.46;99169.13;4873204;29;20424;-75
2021/10/03 09:07:57;;;;;;;7.50;6.77;;;;;;;17.97;74.90;99175.25;4880414;29;20415;-75
2021/10/03 09:10:22;;;;;;;8.10;7.28;;;;;;;18.00;74.43;99161.69;4864449;29;20411;-75
2021/10/03 09:12:47;;;;;;;8.85;7.95;;;;;;;18.02;74.22;99175.06;4819886;29;20437;-75
2021/10/03 09:15:18;;;;;;;7.30;6.60;;;;;;;18.02;74.18;99180.56;4796091;29;20476;-76
2021/10/03 09:17:55;;;;;;;6.57;5.97;;;;;;;18.02;74.14;99170.41;4800119;29;20433;-76
2021/10/03 09:20:28;;;;;;;6.85;5.55;;;;;;;18.03;74.04;99171.22;4800197;29;20432;-76
2021/10/03 09:23:17;;;;;;;6.82;5.80;;;;;;;18.07;74.15;99164.75;4799615;29;20449;-75
2021/10/03 09:25:49;;;;;;;11.05;6.22;;;;;;;18.14;74.15;99172.50;4799689;29;20536;-75
2021/10/03 09:28:20;;;;;;;6.38;5.88;;;;;;;18.19;73.98;99169.56;4798858;29;20513;-76
2021/10/03 09:31:08;;;;;;;7.10;6.40;;;;;;;18.26;73.54;99169.88;4797194;29;20501;-76
2021/10/03 09:33:46;;;;;;;7.43;6.65;;;;;;;18.30;72.76;99170.84;4792159;29;20934;-75
2021/10/03 09:36:15;;;;;;;8.57;6.82;;;;;;;18.39;72.36;99162.56;4800054;29;20426;-75
2021/10/03 09:38:44;;;;;;;8.50;6.77;;;;;;;18.46;71.92;99169.16;4801326;29;20449;-76
2021/10/03 09:41:10;;;;;;;7.18;5.97;;;;;;;18.47;71.62;99165.31;4800260;29;21043;-76
2021/10/03 09:43:46;;;;;;;9.73;5.90;;;;;;;18.47;71.94;99175.47;4814968;29;20458;-76
2021/10/03 09:46:30;;;;;;;6.20;5.68;;;;;;;18.50;71.94;99166.59;4826115;29;20424;-75
2021/10/03 09:48:55;;;;;;;8.15;5.70;;;;;;;18.54;72.11;99186.78;4819805;29;20438;-75
2021/10/03 09:51:21;;;;;;;6.90;6.13;;;;;;;18.59;72.31;99189.31;4817389;29;20475;-76
2021/10/03 09:53:47;;;;;;;8.90;6.35;;;;;;;18.63;72.29;99202.06;4819044;29;20459;-75
2021/10/03 09:56:13;;;;;;;7.23;6.10;;;;;;;18.69;71.81;99199.94;4818598;29;20439;-75
2021/10/03 09:58:40;;;;;;;6.30;5.47;;;;;;;18.74;71.25;99207.19;4817903;29;20538;-74
2021/10/03 10:01:05;;;;;;;10.55;7.35;;;;;;;18.76;71.40;99211.22;4818807;29;20435;-74
2021/10/03 10:03:31;;;;;;;7.75;7.05;;;;;;;18.78;71.27;99219.91;4837536;29;20438;-74
2021/10/03 10:05:57;;;;;;;7.47;6.53;;;;;;;18.80;71.68;99223.16;4838014;29;20899;-73
2021/10/03 10:08:24;;;;;;;7.57;6.78;;;;;;;18.80;72.44;99209.44;4836278;29;20783;-74
2021/10/03 10:10:54;;;;;;;7.53;6.03;;;;;;;18.76;71.96;99210.41;4841257;29;20469;-74
2021/10/03 10:13:22;;;;;;;6.38;5.82;;;;;;;18.74;71.44;99198.97;4840476;29;20775;-74
2021/10/03 10:15:48;;;;;;;6.60;5.97;;;;;;;18.63;71.66;99190.28;4838744;29;20420;-74
2021/10/03 10:18:25;;;;;;;7.37;6.27;;;;;;;18.56;72.91;99200.97;4840532;29;20436;-74
2021/10/03 10:20:56;;;;;;;9.02;7.00;;;;;;;18.53;72.35;99187.91;4840442;29;20495;-74
2021/10/03 10:23:29;;;;;;;7.50;6.18;;;;;;;18.48;72.83;99182.53;4838198;29;20432;-73
2021/10/03 10:25:57;;;;;;;8.45;6.00;;;;;;;18.45;72.41;99177.72;4840088;29;20427;-74
2021/10/03 10:28:42;;;;;;;8.05;6.03;;;;;;;18.46;72.66;99180.16;4839420;29;20416;-74
2021/10/03 10:31:17;;;;;;;6.90;6.30;;;;;;;18.43;72.78;99172.56;4839954;29;20412;-76
2021/10/03 10:33:53;;;;;;;6.70;6.00;;;;;;;18.43;72.25;99164.34;4840283;29;20428;-73
2021/10/03 10:36:24;;;;;;;6.60;6.00;;;;;;;18.46;72.08;99165.63;4838109;29;20813;-73
2021/10/03 10:39:08;;;;;;;7.78;6.20;;;;;;;18.50;72.60;99161.13;4839843;29;20442;-74
2021/10/03 10:41:41;;;;;;;7.88;6.70;;;;;;;18.53;71.82;99158.53;4848441;29;20560;-74
2021/10/03 10:44:27;;;;;;;7.28;6.55;;;;;;;18.61;71.27;99162.34;4838002;29;20446;-74
2021/10/03 10:46:55;;;;;;;10.55;7.75;;;;;;;18.66;70.43;99170.41;4839474;29;20420;-74
2021/10/03 10:49:38;;;;;;;7.30;6.60;;;;;;;18.72;70.94;99163.59;4839420;29;21174;-73
2021/10/03 10:52:19;;;;;;;9.02;6.97;;;;;;;18.76;71.37;99172.00;4839138;29;20428;-74
2021/10/03 10:55:01;;;;;;;8.40;6.07;;;;;;;18.79;71.25;99174.06;4835050;29;20424;-74
2021/10/03 10:57:27;;;;;;;6.20;5.60;;;;;;;18.84;71.71;99169.19;4839249;29;20427;-73
2021/10/03 11:00:14;;;;;;;7.43;6.72;;;;;;;18.88;71.05;99178.38;4838811;29;20440;-73
2021/10/03 11:02:56;;;;;;;9.15;7.43;;;;;;;18.94;71.38;99179.81;4840303;29;20464;-74
2021/10/03 11:05:37;;;;;;;8.25;7.28;;;;;;;19.03;71.52;99174.28;4837574;29;20423;-74
2021/10/03 11:08:20;;;;;;;9.13;6.93;;;;;;;19.11;71.44;99170.66;4839958;29;20419;-74
2021/10/03 11:10:57;;;;;;;7.40;6.13;;;;;;;19.31;71.52;99158.09;4838337;29;20424;-74
2021/10/03 11:13:41;;;;;;;7.43;6.05;;;;;;;19.40;71.24;99151.44;4838057;29;20942;-74
2021/10/03 11:16:25;;;;;;;6.65;5.50;;;;;;;19.46;71.31;99154.81;4832096;29;20433;-74
2021/10/03 11:18:58;;;;;;;5.80;5.10;;;;;;;19.50;70.70;99151.03;4833486;29;20448;-73
2021/10/03 11:21:23;;;;;;;6.03;5.57;;;;;;;19.55;70.53;99145.34;4838085;29;20434;-74
2021/10/03 11:23:49;;;;;;;5.80;5.20;;;;;;;19.48;69.64;99147.03;4830472;29;20448;-74
2021/10/03 11:26:15;;;;;;;5.35;4.95;;;;;;;19.40;69.79;99137.69;4834314;29;20519;-74
2021/10/03 11:28:52;;;;;;;6.27;5.67;;;;;;;19.32;70.13;99133.06;4834060;29;20431;-73
2021/10/03 11:31:57;;;;;;;9.00;5.77;;;;;;;19.25;70.67;99129.22;4839425;29;20456;-74
2021/10/03 11:34:39;;;;;;;6.82;6.18;;;;;;;19.30;70.18;99129.81;4823206;29;20493;-74
2021/10/03 11:37:09;;;;;;;8.73;7.82;;;;;;;19.52;69.49;99128.75;4840620;29;20519;-74
2021/10/03 11:39:41;;;;;;;6.45;5.82;;;;;;;19.76;67.99;99131.56;4843032;29;20424;-74
2021/10/03 11:42:11;;;;;;;6.32;5.07;;;;;;;19.86;67.14;99114.66;4842190;29;20760;-74
2021/10/03 11:44:40;;;;;;;7.60;4.83;;;;;;;19.89;67.08;99122.22;4841919;29;20838;-74
2021/10/03 11:47:08;;;;;;;4.88;4.38;;;;;;;19.99;66.02;99121.81;4842899;29;20748;-74
2021/10/03 11:49:36;;;;;;;5.03;4.63;;;;;;;19.94;66.22;99113.78;4837430;29;20424;-73
2021/10/03 11:52:04;;;;;;;4.97;4.47;;;;;;;19.83;66.04;99115.34;4839336;29;20474;-74
2021/10/03 11:54:33;;;;;;;4.90;4.43;;;;;;;19.87;65.70;99119.03;4841131;29;20424;-75
2021/10/03 11:57:28;;;;;;;4.53;4.23;;;;;;;19.94;64.72;99113.78;4841075;29;20784;-73
2021/10/03 12:00:03;;;;;;;6.18;5.68;;;;;;;19.95;65.03;99109.91;4843069;29;20468;-74
2021/10/03 12:02:35;;;;;;;5.68;4.80;;;;;;;19.87;65.65;99115.47;4842235;29;20439;-73
2021/10/03 12:05:00;;;;;;;5.47;5.00;;;;;;;19.83;66.80;99118.09;4835195;29;20454;-74
2021/10/03 12:07:26;;;;;;;6.10;5.57;;;;;;;19.91;67.25;99111.72;4841844;29;20439;-74
2021/10/03 12:09:58;;;;;;;5.15;4.65;;;;;;;20.03;65.04;99114.50;4843000;29;20446;-74
2021/10/03 12:12:42;;;;;;;8.57;6.30;;;;;;;20.24;63.95;99110.88;4851674;29;20447;-74
2021/10/03 12:15:08;;;;;;;5.47;4.77;;;;;;;20.35;63.43;99112.09;4842082;29;20796;-74
2021/10/03 12:17:48;;;;;;;7.13;6.37;;;;;;;20.50;64.75;99122.41;4840306;29;20422;-74
2021/10/03 12:20:14;;;;;;;7.30;6.55;;;;;;;20.67;63.97;99119.44;4843554;29;20423;-74
2021/10/03 12:22:56;;;;;;;9.90;7.33;;;;;;;20.82;62.61;99126.19;4843664;29;20468;-74
2021/10/03 12:25:38;;;;;;;8.63;7.32;;;;;;;20.87;64.68;99128.75;4843396;29;20416;-73
2021/10/03 12:28:04;;;;;;;5.95;5.47;;;;;;;20.82;63.76;99131.72;4838804;29;20515;-74
2021/10/03 12:30:44;;;;;;;9.13;5.80;;;;;;;20.70;64.38;99141.59;4833995;29;20419;-74
2021/10/03 12:33:09;;;;;;;6.72;5.45;;;;;;;20.58;65.51;99141.56;4841949;29;20416;-74
2021/10/03 12:35:38;;;;;;;6.23;5.00;;;;;;;20.46;65.56;99149.00;4841815;29;20424;-74
2021/10/03 12:38:04;;;;;;;6.45;5.05;;;;;;;20.38;67.08;99163.69;4842125;29;20428;-73
2021/10/03 12:40:29;;;;;;;5.28;4.85;;;;;;;20.27;67.51;99157.81;4838797;29;20427;-74
2021/10/03 12:42:56;;;;;;;5.70;5.30;;;;;;;20.19;67.59;99170.47;4836447;29;20443;-74
2021/10/03 12:45:22;;;;;;;4.80;4.50;;;;;;;20.10;68.40;99183.50;4842259;29;20884;-74
2021/10/03 12:47:47;;;;;;;5.67;5.07;;;;;;;20.01;68.94;99180.03;4840354;29;20427;-74